sensor_id;sensor_type;location;lat;lon;timestamp;temperature;humidity
22966;DHT22;11649;48.090;9.754;2024-02-04T00:01:56;3.30;99.90
22966;DHT22;11649;48.090;9.754;2024-02-04T00:04:23;3.50;99.90
22966;DHT22;11649;48.090;9.754;2024-02-04T00:06:50;3.80;99.90
22966;DHT22;11649;48.090;9.754;2024-02-04T00:09:17;3.90;99.90
22966;DHT22;11649;48.090;9.754;2024-02-04T00:11:45;4.00;99.90
22966;DHT22;11649;48.090;9.754;2024-02-04T00:14:12;3.90;99.90
22966;DHT22;11649;48.090;9.754;2024-02-04T00:16:39;3.60;99.90
22966;DHT22;11649;48.090;9.754;2024-02-04T00:19:06;3.70;99.90
22966;DHT22;11649;48.090;9.754;2024-02-04T00:21:35;3.90;99.90
22966;DHT22;11649;48.090;9.754;2024-02-04T00:24:02;4.10;99.90
22966;DHT22;11649;48.090;9.754;2024-02-04T00:26:29;4.20;99.90
22966;DHT22;11649;48.090;9.754;2024-02-04T00:28:56;4.20;99.90
22966;DHT22;11649;48.090;9.754;2024-02-04T00:31:23;4.30;99.90
22966;DHT22;11649;48.090;9.754;2024-02-04T00:33:50;4.30;99.90
22966;DHT22;11649;48.090;9.754;2024-02-04T00:36:17;4.10;99.90
22966;DHT22;11649;48.090;9.754;2024-02-04T00:38:45;4.10;99.90
22966;DHT22;11649;48.090;9.754;2024-02-04T00:41:12;4.00;99.90
22966;DHT22;11649;48.090;9.754;2024-02-04T00:43:38;3.70;99.90
22966;DHT22;11649;48.090;9.754;2024-02-04T00:46:05;3.70;99.90
22966;DHT22;11649;48.090;9.754;2024-02-04T00:48:33;3.80;99.90
22966;DHT22;11649;48.090;9.754;2024-02-04T00:51:00;3.80;99.90
22966;DHT22;11649;48.090;9.754;2024-02-04T00:53:27;3.80;99.90
22966;DHT22;11649;48.090;9.754;2024-02-04T00:56:03;3.70;99.90
22966;DHT22;11649;48.090;9.754;2024-02-04T00:58:31;3.50;99.90
22966;DHT22;11649;48.090;9.754;2024-02-04T01:00:57;3.30;99.90
22966;DHT22;11649;48.090;9.754;2024-02-04T01:03:24;3.30;99.90
22966;DHT22;11649;48.090;9.754;2024-02-04T01:05:51;3.30;99.90
22966;DHT22;11649;48.090;9.754;2024-02-04T01:08:18;3.30;99.90
22966;DHT22;11649;48.090;9.754;2024-02-04T01:10:45;3.30;99.90
22966;DHT22;11649;48.090;9.754;2024-02-04T01:13:12;3.20;99.90
22966;DHT22;11649;48.090;9.754;2024-02-04T01:15:38;3.30;99.90
22966;DHT22;11649;48.090;9.754;2024-02-04T01:18:05;3.30;99.90
22966;DHT22;11649;48.090;9.754;2024-02-04T01:20:32;3.10;99.90
22966;DHT22;11649;48.090;9.754;2024-02-04T01:22:59;2.90;99.90
22966;DHT22;11649;48.090;9.754;2024-02-04T01:25:26;3.10;99.90
22966;DHT22;11649;48.090;9.754;2024-02-04T01:27:52;3.10;99.90
22966;DHT22;11649;48.090;9.754;2024-02-04T01:30:19;3.10;99.90
22966;DHT22;11649;48.090;9.754;2024-02-04T01:32:46;3.20;99.90
22966;DHT22;11649;48.090;9.754;2024-02-04T01:35:13;3.20;99.90
22966;DHT22;11649;48.090;9.754;2024-02-04T01:37:42;3.10;99.90
22966;DHT22;11649;48.090;9.754;2024-02-04T01:40:15;3.10;99.90
22966;DHT22;11649;48.090;9.754;2024-02-04T01:42:42;2.90;99.90
22966;DHT22;11649;48.090;9.754;2024-02-04T01:45:09;2.40;99.90
22966;DHT22;11649;48.090;9.754;2024-02-04T01:47:36;2.40;99.90
22966;DHT22;11649;48.090;9.754;2024-02-04T01:50:04;2.60;99.90
22966;DHT22;11649;48.090;9.754;2024-02-04T01:52:33;2.70;99.90
22966;DHT22;11649;48.090;9.754;2024-02-04T01:55:01;2.70;99.90
22966;DHT22;11649;48.090;9.754;2024-02-04T01:57:29;2.90;99.90
22966;DHT22;11649;48.090;9.754;2024-02-04T01:59:56;3.00;99.90
22966;DHT22;11649;48.090;9.754;2024-02-04T02:02:25;3.00;99.90
22966;DHT22;11649;48.090;9.754;2024-02-04T02:04:52;3.00;99.90
22966;DHT22;11649;48.090;9.754;2024-02-04T02:07:19;3.10;99.90
22966;DHT22;11649;48.090;9.754;2024-02-04T02:09:49;3.10;99.90
22966;DHT22;11649;48.090;9.754;2024-02-04T02:12:27;3.30;99.90
22966;DHT22;11649;48.090;9.754;2024-02-04T02:15:11;3.60;99.90
22966;DHT22;11649;48.090;9.754;2024-02-04T02:17:55;3.90;99.90
22966;DHT22;11649;48.090;9.754;2024-02-04T02:20:30;4.00;99.90
22966;DHT22;11649;48.090;9.754;2024-02-04T02:23:11;4.00;99.90
22966;DHT22;11649;48.090;9.754;2024-02-04T02:25:40;4.00;99.90
22966;DHT22;11649;48.090;9.754;2024-02-04T02:28:07;4.10;99.90
22966;DHT22;11649;48.090;9.754;2024-02-04T02:30:34;4.20;99.90
22966;DHT22;11649;48.090;9.754;2024-02-04T02:33:01;4.10;99.90
22966;DHT22;11649;48.090;9.754;2024-02-04T02:35:28;4.00;99.90
22966;DHT22;11649;48.090;9.754;2024-02-04T02:40:47;3.90;99.90
22966;DHT22;11649;48.090;9.754;2024-02-04T02:43:15;3.80;99.90
22966;DHT22;11649;48.090;9.754;2024-02-04T02:45:43;3.90;99.90
22966;DHT22;11649;48.090;9.754;2024-02-04T02:48:10;4.10;99.90
22966;DHT22;11649;48.090;9.754;2024-02-04T02:50:38;4.10;99.90
22966;DHT22;11649;48.090;9.754;2024-02-04T02:53:05;4.10;99.90
22966;DHT22;11649;48.090;9.754;2024-02-04T02:55:32;4.20;99.90
22966;DHT22;11649;48.090;9.754;2024-02-04T02:57:59;4.20;99.90
22966;DHT22;11649;48.090;9.754;2024-02-04T03:00:26;4.20;99.90
22966;DHT22;11649;48.090;9.754;2024-02-04T03:02:53;4.30;99.90
22966;DHT22;11649;48.090;9.754;2024-02-04T03:05:20;4.40;99.90
22966;DHT22;11649;48.090;9.754;2024-02-04T03:07:46;4.30;99.90
22966;DHT22;11649;48.090;9.754;2024-02-04T03:10:13;4.30;99.90
22966;DHT22;11649;48.090;9.754;2024-02-04T03:12:40;4.20;99.90
22966;DHT22;11649;48.090;9.754;2024-02-04T03:15:07;4.20;99.90
22966;DHT22;11649;48.090;9.754;2024-02-04T03:17:34;4.20;99.90
22966;DHT22;11649;48.090;9.754;2024-02-04T03:20:01;4.10;99.90
22966;DHT22;11649;48.090;9.754;2024-02-04T03:22:28;4.10;99.90
22966;DHT22;11649;48.090;9.754;2024-02-04T03:24:55;4.00;99.90
22966;DHT22;11649;48.090;9.754;2024-02-04T03:27:21;3.90;99.90
22966;DHT22;11649;48.090;9.754;2024-02-04T03:29:48;3.90;99.90
22966;DHT22;11649;48.090;9.754;2024-02-04T03:32:15;4.00;99.90
22966;DHT22;11649;48.090;9.754;2024-02-04T03:34:42;4.00;99.90
22966;DHT22;11649;48.090;9.754;2024-02-04T03:37:09;4.10;99.90
22966;DHT22;11649;48.090;9.754;2024-02-04T03:39:36;4.10;99.90
22966;DHT22;11649;48.090;9.754;2024-02-04T03:42:03;4.20;99.90
22966;DHT22;11649;48.090;9.754;2024-02-04T03:44:30;4.20;99.90
22966;DHT22;11649;48.090;9.754;2024-02-04T03:46:57;4.20;99.90
22966;DHT22;11649;48.090;9.754;2024-02-04T03:49:24;4.20;99.90
22966;DHT22;11649;48.090;9.754;2024-02-04T03:51:50;4.20;99.90
22966;DHT22;11649;48.090;9.754;2024-02-04T03:54:17;4.30;99.90
22966;DHT22;11649;48.090;9.754;2024-02-04T03:56:45;4.30;99.90
22966;DHT22;11649;48.090;9.754;2024-02-04T03:59:12;4.40;99.90
22966;DHT22;11649;48.090;9.754;2024-02-04T04:01:39;4.30;99.90
22966;DHT22;11649;48.090;9.754;2024-02-04T04:04:06;4.40;99.90
22966;DHT22;11649;48.090;9.754;2024-02-04T04:06:34;4.40;99.90
22966;DHT22;11649;48.090;9.754;2024-02-04T04:09:00;4.30;99.90
22966;DHT22;11649;48.090;9.754;2024-02-04T04:11:27;4.20;99.90
22966;DHT22;11649;48.090;9.754;2024-02-04T04:13:54;4.20;99.90
22966;DHT22;11649;48.090;9.754;2024-02-04T04:16:21;4.20;99.90
22966;DHT22;11649;48.090;9.754;2024-02-04T04:18:49;4.20;99.90
22966;DHT22;11649;48.090;9.754;2024-02-04T04:21:16;4.10;99.90
22966;DHT22;11649;48.090;9.754;2024-02-04T04:23:43;4.00;99.90
22966;DHT22;11649;48.090;9.754;2024-02-04T04:26:10;4.30;99.90
22966;DHT22;11649;48.090;9.754;2024-02-04T04:28:37;4.20;99.90
22966;DHT22;11649;48.090;9.754;2024-02-04T04:31:04;4.20;99.90
22966;DHT22;11649;48.090;9.754;2024-02-04T04:33:31;4.20;99.90
22966;DHT22;11649;48.090;9.754;2024-02-04T04:35:58;4.20;99.90
22966;DHT22;11649;48.090;9.754;2024-02-04T04:38:25;4.30;99.90
22966;DHT22;11649;48.090;9.754;2024-02-04T04:40:52;4.20;99.90
22966;DHT22;11649;48.090;9.754;2024-02-04T04:43:19;4.20;99.90
22966;DHT22;11649;48.090;9.754;2024-02-04T04:45:46;4.10;99.90
22966;DHT22;11649;48.090;9.754;2024-02-04T04:48:12;4.20;99.90
22966;DHT22;11649;48.090;9.754;2024-02-04T04:50:39;4.00;99.90
22966;DHT22;11649;48.090;9.754;2024-02-04T04:53:06;3.90;99.90
22966;DHT22;11649;48.090;9.754;2024-02-04T04:55:33;4.00;99.90
22966;DHT22;11649;48.090;9.754;2024-02-04T04:58:00;4.00;99.90
22966;DHT22;11649;48.090;9.754;2024-02-04T05:00:26;4.10;99.90
22966;DHT22;11649;48.090;9.754;2024-02-04T05:02:53;4.10;99.90
22966;DHT22;11649;48.090;9.754;2024-02-04T05:05:20;4.20;99.90
22966;DHT22;11649;48.090;9.754;2024-02-04T05:07:47;4.20;99.90
22966;DHT22;11649;48.090;9.754;2024-02-04T05:10:15;4.10;99.90
22966;DHT22;11649;48.090;9.754;2024-02-04T05:12:41;4.00;99.90
22966;DHT22;11649;48.090;9.754;2024-02-04T05:15:08;3.90;99.90
22966;DHT22;11649;48.090;9.754;2024-02-04T05:17:35;3.90;99.90
22966;DHT22;11649;48.090;9.754;2024-02-04T05:20:02;3.90;99.90
22966;DHT22;11649;48.090;9.754;2024-02-04T05:22:30;3.90;99.90
22966;DHT22;11649;48.090;9.754;2024-02-04T05:24:56;3.90;99.90
22966;DHT22;11649;48.090;9.754;2024-02-04T05:27:23;3.90;99.90
22966;DHT22;11649;48.090;9.754;2024-02-04T05:29:50;4.00;99.90
22966;DHT22;11649;48.090;9.754;2024-02-04T05:32:17;3.90;99.90
22966;DHT22;11649;48.090;9.754;2024-02-04T05:34:44;3.90;99.90
22966;DHT22;11649;48.090;9.754;2024-02-04T05:37:11;4.00;99.90
22966;DHT22;11649;48.090;9.754;2024-02-04T05:39:37;4.00;99.90
22966;DHT22;11649;48.090;9.754;2024-02-04T05:42:04;4.00;99.90
22966;DHT22;11649;48.090;9.754;2024-02-04T05:44:31;4.40;99.90
22966;DHT22;11649;48.090;9.754;2024-02-04T05:46:58;3.90;99.90
22966;DHT22;11649;48.090;9.754;2024-02-04T05:49:25;3.80;99.90
22966;DHT22;11649;48.090;9.754;2024-02-04T05:51:52;3.80;99.90
22966;DHT22;11649;48.090;9.754;2024-02-04T05:54:19;3.90;99.90
22966;DHT22;11649;48.090;9.754;2024-02-04T05:56:45;4.00;99.90
22966;DHT22;11649;48.090;9.754;2024-02-04T05:59:13;4.00;99.90
22966;DHT22;11649;48.090;9.754;2024-02-04T06:01:40;4.00;99.90
22966;DHT22;11649;48.090;9.754;2024-02-04T06:04:07;4.10;99.90
22966;DHT22;11649;48.090;9.754;2024-02-04T06:06:34;4.20;99.90
22966;DHT22;11649;48.090;9.754;2024-02-04T06:09:01;4.20;99.90
22966;DHT22;11649;48.090;9.754;2024-02-04T06:11:28;4.30;99.90
22966;DHT22;11649;48.090;9.754;2024-02-04T06:13:54;4.30;99.90
22966;DHT22;11649;48.090;9.754;2024-02-04T06:16:21;4.10;99.90
22966;DHT22;11649;48.090;9.754;2024-02-04T06:18:48;4.20;99.90
22966;DHT22;11649;48.090;9.754;2024-02-04T06:21:15;4.10;99.90
22966;DHT22;11649;48.090;9.754;2024-02-04T06:23:41;4.20;99.90
22966;DHT22;11649;48.090;9.754;2024-02-04T06:26:08;4.20;99.90
22966;DHT22;11649;48.090;9.754;2024-02-04T06:28:35;4.20;99.90
22966;DHT22;11649;48.090;9.754;2024-02-04T06:31:02;4.30;99.90
22966;DHT22;11649;48.090;9.754;2024-02-04T06:33:29;4.50;99.90
22966;DHT22;11649;48.090;9.754;2024-02-04T06:35:56;4.30;99.90
22966;DHT22;11649;48.090;9.754;2024-02-04T06:38:23;4.30;99.90
22966;DHT22;11649;48.090;9.754;2024-02-04T06:40:49;4.40;99.90
22966;DHT22;11649;48.090;9.754;2024-02-04T06:43:16;4.30;99.90
22966;DHT22;11649;48.090;9.754;2024-02-04T06:45:43;4.30;99.90
22966;DHT22;11649;48.090;9.754;2024-02-04T06:48:10;4.40;99.90
22966;DHT22;11649;48.090;9.754;2024-02-04T06:50:37;4.40;99.90
22966;DHT22;11649;48.090;9.754;2024-02-04T06:53:04;4.50;99.90
22966;DHT22;11649;48.090;9.754;2024-02-04T06:55:30;4.50;99.90
22966;DHT22;11649;48.090;9.754;2024-02-04T06:57:57;4.50;99.90
22966;DHT22;11649;48.090;9.754;2024-02-04T07:00:24;4.40;99.90
22966;DHT22;11649;48.090;9.754;2024-02-04T07:02:51;4.50;99.90
22966;DHT22;11649;48.090;9.754;2024-02-04T07:05:18;4.60;99.90
22966;DHT22;11649;48.090;9.754;2024-02-04T07:07:44;4.70;99.90
22966;DHT22;11649;48.090;9.754;2024-02-04T07:10:11;4.60;99.90
22966;DHT22;11649;48.090;9.754;2024-02-04T07:12:38;4.60;99.90
22966;DHT22;11649;48.090;9.754;2024-02-04T07:15:06;4.70;99.90
22966;DHT22;11649;48.090;9.754;2024-02-04T07:17:32;4.70;99.90
22966;DHT22;11649;48.090;9.754;2024-02-04T07:19:59;4.70;99.90
22966;DHT22;11649;48.090;9.754;2024-02-04T07:22:26;4.70;99.90
22966;DHT22;11649;48.090;9.754;2024-02-04T07:24:53;4.60;99.90
22966;DHT22;11649;48.090;9.754;2024-02-04T07:27:20;4.70;99.90
22966;DHT22;11649;48.090;9.754;2024-02-04T07:29:47;4.70;99.90
22966;DHT22;11649;48.090;9.754;2024-02-04T07:32:14;4.80;99.90
22966;DHT22;11649;48.090;9.754;2024-02-04T07:34:41;4.70;99.90
22966;DHT22;11649;48.090;9.754;2024-02-04T07:37:08;4.70;99.90
22966;DHT22;11649;48.090;9.754;2024-02-04T07:39:35;4.70;99.90
22966;DHT22;11649;48.090;9.754;2024-02-04T07:42:02;4.60;99.90
22966;DHT22;11649;48.090;9.754;2024-02-04T07:44:29;4.50;99.90
22966;DHT22;11649;48.090;9.754;2024-02-04T07:46:56;4.70;99.90
22966;DHT22;11649;48.090;9.754;2024-02-04T07:49:23;4.70;99.90
22966;DHT22;11649;48.090;9.754;2024-02-04T07:51:50;4.70;99.90
22966;DHT22;11649;48.090;9.754;2024-02-04T07:54:17;4.60;99.90
22966;DHT22;11649;48.090;9.754;2024-02-04T07:56:44;4.60;99.90
22966;DHT22;11649;48.090;9.754;2024-02-04T07:59:10;4.60;99.90
22966;DHT22;11649;48.090;9.754;2024-02-04T08:01:37;4.60;99.90
22966;DHT22;11649;48.090;9.754;2024-02-04T08:04:04;4.60;99.90
22966;DHT22;11649;48.090;9.754;2024-02-04T08:06:34;4.60;99.90
22966;DHT22;11649;48.090;9.754;2024-02-04T08:09:01;4.60;99.90
22966;DHT22;11649;48.090;9.754;2024-02-04T08:11:28;4.70;99.90
22966;DHT22;11649;48.090;9.754;2024-02-04T08:13:55;4.70;99.90
22966;DHT22;11649;48.090;9.754;2024-02-04T08:16:22;4.90;99.90
22966;DHT22;11649;48.090;9.754;2024-02-04T08:18:49;4.80;99.90
22966;DHT22;11649;48.090;9.754;2024-02-04T08:21:16;4.80;99.90
22966;DHT22;11649;48.090;9.754;2024-02-04T08:23:43;4.80;99.90
22966;DHT22;11649;48.090;9.754;2024-02-04T08:26:11;4.80;99.90
22966;DHT22;11649;48.090;9.754;2024-02-04T08:28:38;4.90;99.90
22966;DHT22;11649;48.090;9.754;2024-02-04T08:31:05;4.90;99.90
22966;DHT22;11649;48.090;9.754;2024-02-04T08:33:32;5.00;99.90
22966;DHT22;11649;48.090;9.754;2024-02-04T08:35:59;4.80;99.90
22966;DHT22;11649;48.090;9.754;2024-02-04T08:38:26;4.80;99.90
22966;DHT22;11649;48.090;9.754;2024-02-04T08:40:53;4.80;99.90
22966;DHT22;11649;48.090;9.754;2024-02-04T08:43:20;4.90;99.90
22966;DHT22;11649;48.090;9.754;2024-02-04T08:45:47;4.90;99.90
22966;DHT22;11649;48.090;9.754;2024-02-04T08:48:14;4.90;99.90
22966;DHT22;11649;48.090;9.754;2024-02-04T08:50:41;4.90;99.90
22966;DHT22;11649;48.090;9.754;2024-02-04T08:53:07;5.00;99.90
22966;DHT22;11649;48.090;9.754;2024-02-04T08:55:34;5.10;99.90
22966;DHT22;11649;48.090;9.754;2024-02-04T08:58:01;5.10;99.90
22966;DHT22;11649;48.090;9.754;2024-02-04T09:00:28;5.10;99.90
22966;DHT22;11649;48.090;9.754;2024-02-04T09:02:55;5.10;99.90
22966;DHT22;11649;48.090;9.754;2024-02-04T09:05:22;5.10;99.90
22966;DHT22;11649;48.090;9.754;2024-02-04T09:07:49;5.10;99.90
22966;DHT22;11649;48.090;9.754;2024-02-04T09:10:16;5.10;99.90
22966;DHT22;11649;48.090;9.754;2024-02-04T09:12:43;5.20;99.90
22966;DHT22;11649;48.090;9.754;2024-02-04T09:15:10;5.20;99.90
22966;DHT22;11649;48.090;9.754;2024-02-04T09:17:37;5.30;99.90
22966;DHT22;11649;48.090;9.754;2024-02-04T09:20:04;7.30;99.90
22966;DHT22;11649;48.090;9.754;2024-02-04T09:22:32;5.50;99.90
22966;DHT22;11649;48.090;9.754;2024-02-04T09:24:59;5.50;99.90
22966;DHT22;11649;48.090;9.754;2024-02-04T09:27:26;5.50;99.90
22966;DHT22;11649;48.090;9.754;2024-02-04T09:29:53;5.50;99.90
22966;DHT22;11649;48.090;9.754;2024-02-04T09:32:21;5.50;99.90
22966;DHT22;11649;48.090;9.754;2024-02-04T09:34:49;5.60;99.90
22966;DHT22;11649;48.090;9.754;2024-02-04T09:37:16;5.60;99.90
22966;DHT22;11649;48.090;9.754;2024-02-04T09:39:44;5.60;99.90
22966;DHT22;11649;48.090;9.754;2024-02-04T09:42:19;5.70;99.90
22966;DHT22;11649;48.090;9.754;2024-02-04T09:44:51;5.70;99.90
22966;DHT22;11649;48.090;9.754;2024-02-04T09:47:18;5.80;99.90
22966;DHT22;11649;48.090;9.754;2024-02-04T09:49:45;5.80;99.90
22966;DHT22;11649;48.090;9.754;2024-02-04T09:52:13;6.30;99.90
22966;DHT22;11649;48.090;9.754;2024-02-04T09:54:50;5.90;99.90
22966;DHT22;11649;48.090;9.754;2024-02-04T09:57:19;5.90;99.90
22966;DHT22;11649;48.090;9.754;2024-02-04T09:59:46;6.00;99.90
22966;DHT22;11649;48.090;9.754;2024-02-04T10:02:15;6.10;99.90
22966;DHT22;11649;48.090;9.754;2024-02-04T10:04:47;6.10;99.90
22966;DHT22;11649;48.090;9.754;2024-02-04T10:07:14;6.30;99.90
22966;DHT22;11649;48.090;9.754;2024-02-04T10:09:44;6.30;99.90
22966;DHT22;11649;48.090;9.754;2024-02-04T10:12:11;6.20;99.90
22966;DHT22;11649;48.090;9.754;2024-02-04T10:14:37;6.30;99.90
22966;DHT22;11649;48.090;9.754;2024-02-04T10:17:04;6.50;99.90
22966;DHT22;11649;48.090;9.754;2024-02-04T10:19:31;6.80;99.90
22966;DHT22;11649;48.090;9.754;2024-02-04T10:22:02;6.90;99.90
22966;DHT22;11649;48.090;9.754;2024-02-04T10:24:30;7.20;99.90
22966;DHT22;11649;48.090;9.754;2024-02-04T10:26:57;7.50;99.90
22966;DHT22;11649;48.090;9.754;2024-02-04T10:29:25;7.80;99.90
22966;DHT22;11649;48.090;9.754;2024-02-04T10:31:55;8.00;99.90
22966;DHT22;11649;48.090;9.754;2024-02-04T10:34:26;8.20;99.90
22966;DHT22;11649;48.090;9.754;2024-02-04T10:36:54;8.10;99.90
22966;DHT22;11649;48.090;9.754;2024-02-04T10:39:21;7.80;99.90
22966;DHT22;11649;48.090;9.754;2024-02-04T10:41:50;7.50;99.90
22966;DHT22;11649;48.090;9.754;2024-02-04T10:44:21;7.60;99.90
22966;DHT22;11649;48.090;9.754;2024-02-04T10:46:49;7.70;99.90
22966;DHT22;11649;48.090;9.754;2024-02-04T10:49:18;7.90;99.90
22966;DHT22;11649;48.090;9.754;2024-02-04T10:51:45;8.10;99.90
22966;DHT22;11649;48.090;9.754;2024-02-04T10:54:15;8.60;99.90
22966;DHT22;11649;48.090;9.754;2024-02-04T10:56:45;8.70;99.90
22966;DHT22;11649;48.090;9.754;2024-02-04T10:59:17;8.60;99.90
22966;DHT22;11649;48.090;9.754;2024-02-04T11:01:46;8.60;99.90
22966;DHT22;11649;48.090;9.754;2024-02-04T11:04:17;8.60;99.90
22966;DHT22;11649;48.090;9.754;2024-02-04T11:06:45;8.60;99.90
22966;DHT22;11649;48.090;9.754;2024-02-04T11:09:13;9.00;99.90
22966;DHT22;11649;48.090;9.754;2024-02-04T11:11:42;9.20;99.90
22966;DHT22;11649;48.090;9.754;2024-02-04T11:14:16;9.00;99.90
22966;DHT22;11649;48.090;9.754;2024-02-04T11:20:07;9.20;99.90
22966;DHT22;11649;48.090;9.754;2024-02-04T11:25:49;9.40;99.90
22966;DHT22;11649;48.090;9.754;2024-02-04T11:28:18;9.10;99.90
22966;DHT22;11649;48.090;9.754;2024-02-04T11:30:47;8.80;99.90
22966;DHT22;11649;48.090;9.754;2024-02-04T11:33:18;9.00;99.90
22966;DHT22;11649;48.090;9.754;2024-02-04T11:35:45;9.50;99.90
22966;DHT22;11649;48.090;9.754;2024-02-04T11:38:17;9.90;99.90
22966;DHT22;11649;48.090;9.754;2024-02-04T11:40:45;9.70;99.90
22966;DHT22;11649;48.090;9.754;2024-02-04T11:43:14;9.30;99.90
22966;DHT22;11649;48.090;9.754;2024-02-04T11:45:42;9.20;99.90
22966;DHT22;11649;48.090;9.754;2024-02-04T11:48:10;9.30;99.90
22966;DHT22;11649;48.090;9.754;2024-02-04T11:50:38;9.40;99.90
22966;DHT22;11649;48.090;9.754;2024-02-04T11:53:09;9.50;99.90
22966;DHT22;11649;48.090;9.754;2024-02-04T11:55:39;9.90;99.90
22966;DHT22;11649;48.090;9.754;2024-02-04T11:58:12;10.00;99.90
22966;DHT22;11649;48.090;9.754;2024-02-04T12:00:42;9.70;99.90
22966;DHT22;11649;48.090;9.754;2024-02-04T12:03:11;9.90;99.90
22966;DHT22;11649;48.090;9.754;2024-02-04T12:05:38;9.30;99.90
22966;DHT22;11649;48.090;9.754;2024-02-04T12:08:08;10.20;99.90
22966;DHT22;11649;48.090;9.754;2024-02-04T12:10:35;10.10;99.90
22966;DHT22;11649;48.090;9.754;2024-02-04T12:13:04;10.10;99.90
22966;DHT22;11649;48.090;9.754;2024-02-04T12:15:33;10.20;99.90
22966;DHT22;11649;48.090;9.754;2024-02-04T12:18:08;10.20;99.90
22966;DHT22;11649;48.090;9.754;2024-02-04T12:20:35;10.20;99.90
22966;DHT22;11649;48.090;9.754;2024-02-04T12:23:07;10.30;99.90
22966;DHT22;11649;48.090;9.754;2024-02-04T12:25:34;10.40;99.90
22966;DHT22;11649;48.090;9.754;2024-02-04T12:28:03;10.60;99.90
22966;DHT22;11649;48.090;9.754;2024-02-04T12:30:31;10.80;99.90
22966;DHT22;11649;48.090;9.754;2024-02-04T12:33:01;10.80;99.90
22966;DHT22;11649;48.090;9.754;2024-02-04T12:35:28;10.80;99.90
22966;DHT22;11649;48.090;9.754;2024-02-04T12:37:57;10.90;99.90
22966;DHT22;11649;48.090;9.754;2024-02-04T12:40:33;11.00;99.90
22966;DHT22;11649;48.090;9.754;2024-02-04T12:43:01;11.20;99.90
22966;DHT22;11649;48.090;9.754;2024-02-04T12:45:32;11.40;99.90
22966;DHT22;11649;48.090;9.754;2024-02-04T12:48:00;11.50;98.20
22966;DHT22;11649;48.090;9.754;2024-02-04T12:50:28;11.30;98.20
22966;DHT22;11649;48.090;9.754;2024-02-04T12:53:21;11.00;98.30
22966;DHT22;11649;48.090;9.754;2024-02-04T12:55:48;10.70;99.90
22966;DHT22;11649;48.090;9.754;2024-02-04T12:58:15;10.60;99.90
22966;DHT22;11649;48.090;9.754;2024-02-04T13:00:44;10.60;99.90
22966;DHT22;11649;48.090;9.754;2024-02-04T13:03:15;10.60;99.90
22966;DHT22;11649;48.090;9.754;2024-02-04T13:05:43;10.60;99.90
22966;DHT22;11649;48.090;9.754;2024-02-04T13:08:10;10.60;99.90
22966;DHT22;11649;48.090;9.754;2024-02-04T13:10:36;10.70;99.90
22966;DHT22;11649;48.090;9.754;2024-02-04T13:13:05;10.70;99.90
22966;DHT22;11649;48.090;9.754;2024-02-04T13:15:38;10.60;99.90
22966;DHT22;11649;48.090;9.754;2024-02-04T13:18:06;10.50;99.90
22966;DHT22;11649;48.090;9.754;2024-02-04T13:20:33;10.50;99.90
22966;DHT22;11649;48.090;9.754;2024-02-04T13:22:59;10.60;99.90
22966;DHT22;11649;48.090;9.754;2024-02-04T13:25:32;10.60;99.90
22966;DHT22;11649;48.090;9.754;2024-02-04T13:27:59;10.60;99.90
22966;DHT22;11649;48.090;9.754;2024-02-04T13:30:26;10.70;99.90
22966;DHT22;11649;48.090;9.754;2024-02-04T13:32:54;10.70;99.90
22966;DHT22;11649;48.090;9.754;2024-02-04T13:35:21;10.80;99.90
22966;DHT22;11649;48.090;9.754;2024-02-04T13:37:48;10.80;99.90
22966;DHT22;11649;48.090;9.754;2024-02-04T13:40:18;10.70;99.90
22966;DHT22;11649;48.090;9.754;2024-02-04T13:42:46;10.90;99.30
22966;DHT22;11649;48.090;9.754;2024-02-04T13:45:13;11.20;99.60
22966;DHT22;11649;48.090;9.754;2024-02-04T13:47:41;11.20;99.70
22966;DHT22;11649;48.090;9.754;2024-02-04T13:50:10;11.00;98.50
22966;DHT22;11649;48.090;9.754;2024-02-04T13:52:38;11.10;98.10
22966;DHT22;11649;48.090;9.754;2024-02-04T13:55:05;11.10;98.90
22966;DHT22;11649;48.090;9.754;2024-02-04T13:57:34;11.40;96.60
22966;DHT22;11649;48.090;9.754;2024-02-04T14:00:02;11.50;96.50
22966;DHT22;11649;48.090;9.754;2024-02-04T14:02:31;11.60;96.20
22966;DHT22;11649;48.090;9.754;2024-02-04T14:04:58;11.60;96.30
22966;DHT22;11649;48.090;9.754;2024-02-04T14:07:25;11.30;96.30
22966;DHT22;11649;48.090;9.754;2024-02-04T14:09:53;11.00;98.00
22966;DHT22;11649;48.090;9.754;2024-02-04T14:12:20;10.90;98.00
22966;DHT22;11649;48.090;9.754;2024-02-04T14:14:47;10.60;99.50
22966;DHT22;11649;48.090;9.754;2024-02-04T14:17:13;10.60;99.90
22966;DHT22;11649;48.090;9.754;2024-02-04T14:19:40;10.60;99.90
22966;DHT22;11649;48.090;9.754;2024-02-04T14:22:07;10.20;99.90
22966;DHT22;11649;48.090;9.754;2024-02-04T14:24:34;10.30;99.90
22966;DHT22;11649;48.090;9.754;2024-02-04T14:27:02;10.30;99.90
22966;DHT22;11649;48.090;9.754;2024-02-04T14:29:31;10.30;99.90
22966;DHT22;11649;48.090;9.754;2024-02-04T14:31:58;10.40;99.90
22966;DHT22;11649;48.090;9.754;2024-02-04T14:34:24;10.40;99.90
22966;DHT22;11649;48.090;9.754;2024-02-04T14:36:52;10.40;99.90
22966;DHT22;11649;48.090;9.754;2024-02-04T14:39:19;10.30;99.90
22966;DHT22;11649;48.090;9.754;2024-02-04T14:41:46;10.30;99.90
22966;DHT22;11649;48.090;9.754;2024-02-04T14:44:12;12.10;99.90
22966;DHT22;11649;48.090;9.754;2024-02-04T14:46:39;10.40;99.90
22966;DHT22;11649;48.090;9.754;2024-02-04T14:49:06;9.70;99.90
22966;DHT22;11649;48.090;9.754;2024-02-04T14:51:33;10.30;99.90
22966;DHT22;11649;48.090;9.754;2024-02-04T14:54:02;10.20;99.90
22966;DHT22;11649;48.090;9.754;2024-02-04T14:56:29;10.20;99.90
22966;DHT22;11649;48.090;9.754;2024-02-04T14:58:56;10.10;99.90
22966;DHT22;11649;48.090;9.754;2024-02-04T15:01:23;10.10;99.90
22966;DHT22;11649;48.090;9.754;2024-02-04T15:03:50;10.00;99.90
22966;DHT22;11649;48.090;9.754;2024-02-04T15:06:16;10.40;99.90
22966;DHT22;11649;48.090;9.754;2024-02-04T15:08:43;10.00;99.90
22966;DHT22;11649;48.090;9.754;2024-02-04T15:11:10;9.90;99.90
22966;DHT22;11649;48.090;9.754;2024-02-04T15:13:37;9.90;99.90
22966;DHT22;11649;48.090;9.754;2024-02-04T15:16:04;9.70;99.90
22966;DHT22;11649;48.090;9.754;2024-02-04T15:18:33;9.70;99.90
22966;DHT22;11649;48.090;9.754;2024-02-04T15:21:02;9.60;99.90
22966;DHT22;11649;48.090;9.754;2024-02-04T15:23:30;9.50;99.90
22966;DHT22;11649;48.090;9.754;2024-02-04T15:25:57;9.50;99.90
22966;DHT22;11649;48.090;9.754;2024-02-04T15:28:24;9.40;99.90
22966;DHT22;11649;48.090;9.754;2024-02-04T15:30:51;9.50;99.90
22966;DHT22;11649;48.090;9.754;2024-02-04T15:33:18;9.40;99.90
22966;DHT22;11649;48.090;9.754;2024-02-04T15:35:46;9.40;99.90
22966;DHT22;11649;48.090;9.754;2024-02-04T15:38:13;9.40;99.90
22966;DHT22;11649;48.090;9.754;2024-02-04T15:40:44;9.40;99.90
22966;DHT22;11649;48.090;9.754;2024-02-04T15:43:11;9.30;99.90
22966;DHT22;11649;48.090;9.754;2024-02-04T15:45:38;9.30;99.90
22966;DHT22;11649;48.090;9.754;2024-02-04T15:48:05;9.30;99.90
22966;DHT22;11649;48.090;9.754;2024-02-04T15:50:33;9.20;99.90
22966;DHT22;11649;48.090;9.754;2024-02-04T15:53:04;9.30;99.90
22966;DHT22;11649;48.090;9.754;2024-02-04T15:55:32;9.30;99.90